createdAt,value
2022-11-05T00:00:38.306Z,8.41
2022-11-05T00:03:24.486Z,8.40
2022-11-05T00:06:12.225Z,8.50
2022-11-05T00:08:59.589Z,8.58
2022-11-05T00:11:46.343Z,8.66
2022-11-05T00:14:32.249Z,8.65
2022-11-05T00:16:59.044Z,8.64
2022-11-05T00:19:25.804Z,8.63
2022-11-05T00:22:10.881Z,8.61
2022-11-05T00:24:56.126Z,8.56
2022-11-05T00:27:22.903Z,8.55
2022-11-05T00:29:49.674Z,8.49
2022-11-05T00:32:16.428Z,8.52
2022-11-05T00:34:43.212Z,8.57
2022-11-05T00:37:09.973Z,8.53
2022-11-05T00:39:37.021Z,8.57
2022-11-05T00:42:22.805Z,8.62
2022-11-05T00:45:01.548Z,8.67
2022-11-05T00:47:47.643Z,8.68
2022-11-05T00:50:14.627Z,8.73
2022-11-05T00:52:56.924Z,8.74
2022-11-05T00:55:30.685Z,8.79
2022-11-05T00:57:58.135Z,8.83
2022-11-05T01:00:28.500Z,8.90
2022-11-05T01:02:59.368Z,8.92
2022-11-05T01:05:26.196Z,8.96
2022-11-05T01:07:53.609Z,9.01
2022-11-05T01:10:21.459Z,9.02
2022-11-05T01:12:48.851Z,9.02
2022-11-05T01:15:17.177Z,9.02
2022-11-05T01:17:44.141Z,9.08
2022-11-05T01:20:11.731Z,9.12
2022-11-05T01:22:38.531Z,9.16
2022-11-05T01:25:07.426Z,9.20
2022-11-05T01:27:35.964Z,9.19
2022-11-05T01:30:04.456Z,9.22
2022-11-05T01:32:31.332Z,9.22
2022-11-05T01:34:58.126Z,9.25
2022-11-05T01:38:08.526Z,9.26
2022-11-05T01:40:35.355Z,9.17
2022-11-05T01:43:02.198Z,9.17
2022-11-05T01:45:29.363Z,9.10
2022-11-05T01:48:10.991Z,9.08
2022-11-05T01:51:03.202Z,9.06
2022-11-05T01:53:50.875Z,8.99
2022-11-05T01:56:41.639Z,9.00
2022-11-05T01:59:22.377Z,8.98
2022-11-05T02:01:49.389Z,8.96
2022-11-05T02:04:35.538Z,8.90
2022-11-05T02:07:04.464Z,8.90
2022-11-05T02:09:44.134Z,8.85
2022-11-05T02:12:12.606Z,8.85
2022-11-05T02:14:39.490Z,8.82
2022-11-05T02:17:34.055Z,8.84
2022-11-05T02:20:33.781Z,8.84
2022-11-05T02:23:31.210Z,8.84
2022-11-05T02:26:33.090Z,8.80
2022-11-05T02:29:42.559Z,8.79
2022-11-05T02:32:26.310Z,8.79
2022-11-05T02:35:07.023Z,8.77
2022-11-05T02:38:00.298Z,8.75
2022-11-05T02:40:59.416Z,8.72
2022-11-05T02:44:10.415Z,8.71
2022-11-05T02:46:57.754Z,8.70
2022-11-05T02:49:42.602Z,8.66
2022-11-05T02:52:25.959Z,8.68
2022-11-05T02:55:27.065Z,8.71
2022-11-05T02:57:53.982Z,8.71
2022-11-05T03:00:42.009Z,8.74
2022-11-05T03:03:31.204Z,8.80
2022-11-05T03:06:40.888Z,8.88
2022-11-05T03:09:35.201Z,8.94
2022-11-05T03:12:28.003Z,9.01
2022-11-05T03:15:29.703Z,9.01
2022-11-05T03:18:07.307Z,9.02
2022-11-05T03:20:57.181Z,9.03
2022-11-05T03:23:52.089Z,9.07
2022-11-05T03:26:32.126Z,9.13
2022-11-05T03:29:19.552Z,9.14
2022-11-05T03:31:49.426Z,9.17
2022-11-05T03:34:20.084Z,9.19
2022-11-05T03:36:52.433Z,9.21
2022-11-05T03:39:42.421Z,9.22
2022-11-05T03:42:14.046Z,9.25
2022-11-05T03:44:46.660Z,9.26
2022-11-05T03:47:22.974Z,9.25
2022-11-05T03:50:18.089Z,9.24
2022-11-05T03:53:09.987Z,9.25
2022-11-05T03:55:56.556Z,9.24
2022-11-05T03:58:24.269Z,9.26
2022-11-05T04:00:51.576Z,9.26
2022-11-05T04:03:18.564Z,9.19
2022-11-05T04:06:05.635Z,9.14
2022-11-05T04:08:50.884Z,9.12
2022-11-05T04:11:36.167Z,9.15
2022-11-05T04:14:02.950Z,9.18
2022-11-05T04:16:48.065Z,9.22
2022-11-05T04:19:34.825Z,9.30
2022-11-05T04:22:19.893Z,9.31
2022-11-05T04:24:46.679Z,9.32
2022-11-05T04:27:13.439Z,9.40
2022-11-05T04:29:58.600Z,9.41
2022-11-05T04:32:25.366Z,9.42
2022-11-05T04:34:52.180Z,9.46
2022-11-05T04:37:18.950Z,9.48
2022-11-05T04:39:45.716Z,9.52
2022-11-05T04:42:12.502Z,9.55
2022-11-05T04:44:39.300Z,9.57
2022-11-05T04:47:06.129Z,9.60
2022-11-05T04:49:32.906Z,9.60
2022-11-05T04:51:59.675Z,9.60
2022-11-05T04:54:26.467Z,9.61
2022-11-05T04:56:53.258Z,9.60
2022-11-05T04:59:20.140Z,9.60
2022-11-05T05:01:51.459Z,9.56
2022-11-05T05:04:18.358Z,9.55
2022-11-05T05:06:45.754Z,9.56
2022-11-05T05:09:12.611Z,9.55
2022-11-05T05:11:40.976Z,9.52
2022-11-05T05:14:08.615Z,9.61
2022-11-05T05:16:35.400Z,9.60
2022-11-05T05:19:02.179Z,9.63
2022-11-05T05:21:41.509Z,9.72
2022-11-05T05:24:16.172Z,9.70
2022-11-05T05:26:49.027Z,9.66
2022-11-05T05:29:17.052Z,9.64
2022-11-05T05:31:44.571Z,9.65
2022-11-05T05:34:13.345Z,9.69
2022-11-05T05:36:40.478Z,9.74
2022-11-05T05:39:11.052Z,9.76
2022-11-05T05:41:38.107Z,9.81
2022-11-05T05:44:06.274Z,9.80
2022-11-05T05:46:33.104Z,9.88
2022-11-05T05:48:59.896Z,9.89
2022-11-05T05:51:26.668Z,9.91
2022-11-05T05:53:54.804Z,9.91
2022-11-05T05:56:21.828Z,9.91
2022-11-05T05:58:48.845Z,9.91
2022-11-05T06:01:19.576Z,9.91
2022-11-05T06:03:48.452Z,9.95
2022-11-05T06:06:21.174Z,9.96
2022-11-05T06:08:48.996Z,10.02
2022-11-05T06:11:16.184Z,10.06
2022-11-05T06:13:43.019Z,10.04
2022-11-05T06:16:10.327Z,10.06
2022-11-05T06:18:37.968Z,10.09
2022-11-05T06:21:11.612Z,10.14
2022-11-05T06:23:41.951Z,10.17
2022-11-05T06:26:13.182Z,10.21
2022-11-05T06:28:42.023Z,10.25
2022-11-05T06:31:10.590Z,10.34
2022-11-05T06:33:37.713Z,10.35
2022-11-05T06:36:06.675Z,10.31
2022-11-05T06:38:36.527Z,10.38
2022-11-05T06:41:09.021Z,10.44
2022-11-05T06:43:37.690Z,10.47
2022-11-05T06:46:04.962Z,10.58
2022-11-05T06:48:31.837Z,10.68
2022-11-05T06:50:58.823Z,10.77
2022-11-05T06:53:26.018Z,10.73
2022-11-05T06:55:52.831Z,10.81
2022-11-05T06:58:19.614Z,10.96
2022-11-05T07:00:46.880Z,10.83
2022-11-05T07:03:14.391Z,10.95
2022-11-05T07:05:48.555Z,10.96
2022-11-05T07:08:16.402Z,11.06
2022-11-05T07:10:43.380Z,11.12
2022-11-05T07:13:10.552Z,11.22
2022-11-05T07:15:38.052Z,11.25
2022-11-05T07:18:07.394Z,11.30
2022-11-05T07:20:34.854Z,11.07
2022-11-05T07:23:07.554Z,11.21
2022-11-05T07:25:35.447Z,11.30
2022-11-05T07:28:03.564Z,11.42
2022-11-05T07:30:32.164Z,11.30
2022-11-05T07:32:59.020Z,11.46
2022-11-05T07:35:26.560Z,11.51
2022-11-05T07:37:55.024Z,11.35
2022-11-05T07:40:24.975Z,11.60
2022-11-05T07:42:58.206Z,11.34
2022-11-05T07:45:27.271Z,11.62
2022-11-05T07:47:57.193Z,11.65
2022-11-05T07:50:27.077Z,11.73
2022-11-05T07:52:54.069Z,11.79
2022-11-05T07:55:21.135Z,11.97
2022-11-05T07:57:50.727Z,11.92
2022-11-05T08:00:21.738Z,11.93
2022-11-05T08:03:08.381Z,11.92
2022-11-05T08:05:44.358Z,12.15
2022-11-05T08:08:19.138Z,12.22
2022-11-05T08:10:46.423Z,12.19
2022-11-05T08:13:14.495Z,12.19
2022-11-05T08:15:42.615Z,12.31
2022-11-05T08:18:13.988Z,12.33
2022-11-05T08:20:42.756Z,12.39
2022-11-05T08:23:10.683Z,12.37
2022-11-05T08:25:37.929Z,12.31
2022-11-05T08:28:08.257Z,12.37
2022-11-05T08:30:35.766Z,12.39
2022-11-05T08:33:06.707Z,12.51
2022-11-05T08:35:35.829Z,12.61
2022-11-05T08:38:10.015Z,12.57
2022-11-05T08:40:37.752Z,12.66
2022-11-05T08:43:07.142Z,12.55
2022-11-05T08:45:38.341Z,12.63
2022-11-05T08:48:12.955Z,12.67
2022-11-05T08:50:39.864Z,12.79
2022-11-05T08:53:08.732Z,12.83
2022-11-05T08:55:36.301Z,12.91
2022-11-05T08:58:06.763Z,12.77
2022-11-05T09:00:36.233Z,12.97
2022-11-05T09:03:05.053Z,13.11
2022-11-05T09:05:38.013Z,13.17
2022-11-05T09:08:19.295Z,13.11
2022-11-05T09:10:47.555Z,13.12
2022-11-05T09:13:18.897Z,13.09
2022-11-05T09:15:48.510Z,13.22
2022-11-05T09:18:16.787Z,13.27
2022-11-05T09:20:43.848Z,12.84
2022-11-05T09:23:14.733Z,13.14
2022-11-05T09:25:42.039Z,13.18
2022-11-05T09:28:17.978Z,13.20
2022-11-05T09:30:49.265Z,13.26
2022-11-05T09:33:19.069Z,13.41
2022-11-05T09:35:46.415Z,13.88
2022-11-05T09:38:14.351Z,13.89
2022-11-05T09:40:58.098Z,14.21
2022-11-05T09:43:46.907Z,14.17
2022-11-05T09:46:26.279Z,14.03
2022-11-05T09:49:02.164Z,13.59
2022-11-05T09:51:29.752Z,13.33
2022-11-05T09:53:59.458Z,13.49
2022-11-05T09:56:40.519Z,13.58
2022-11-05T09:59:22.725Z,13.58
2022-11-05T10:01:52.305Z,13.72
2022-11-05T10:04:24.074Z,13.78
2022-11-05T10:07:01.031Z,13.87
2022-11-05T10:09:40.056Z,13.95
2022-11-05T10:12:17.482Z,13.99
2022-11-05T10:14:50.574Z,13.77
2022-11-05T10:17:28.542Z,13.68
2022-11-05T10:20:08.539Z,13.36
2022-11-05T10:22:36.502Z,13.25
2022-11-05T10:25:21.408Z,13.37
2022-11-05T10:27:53.572Z,12.99
2022-11-05T10:30:21.646Z,13.20
2022-11-05T10:32:53.060Z,13.15
2022-11-05T10:35:22.627Z,13.30
2022-11-05T10:37:50.790Z,13.29
2022-11-05T10:40:55.178Z,13.49
2022-11-05T10:43:48.643Z,13.63
2022-11-05T10:46:40.076Z,13.90
2022-11-05T10:49:42.443Z,15.91
2022-11-05T10:52:31.676Z,17.03
2022-11-05T10:55:02.952Z,18.50
2022-11-05T10:57:38.707Z,18.56
2022-11-05T11:00:21.577Z,18.36
2022-11-05T11:03:01.883Z,17.30
2022-11-05T11:05:40.310Z,17.12
2022-11-05T11:08:13.395Z,16.87
2022-11-05T11:10:49.074Z,16.39
2022-11-05T11:13:26.744Z,16.09
2022-11-05T11:15:55.159Z,15.82
2022-11-05T11:18:41.852Z,15.81
2022-11-05T11:21:22.988Z,15.90
2022-11-05T11:24:06.830Z,15.59
2022-11-05T11:26:37.778Z,15.20
2022-11-05T11:29:26.187Z,15.12
2022-11-05T11:32:00.017Z,14.70
2022-11-05T11:34:31.474Z,14.56
2022-11-05T11:37:19.781Z,14.40
2022-11-05T11:39:56.204Z,14.53
2022-11-05T11:42:34.994Z,14.46
2022-11-05T11:45:14.572Z,14.38
2022-11-05T11:47:47.693Z,14.55
2022-11-05T11:50:43.081Z,14.52
2022-11-05T11:53:19.775Z,14.24
2022-11-05T11:56:14.556Z,14.16
2022-11-05T11:58:53.625Z,14.27
2022-11-05T12:01:52.133Z,14.48
2022-11-05T12:04:56.961Z,14.26
2022-11-05T12:07:44.520Z,14.31
2022-11-05T12:11:10.932Z,14.27
2022-11-05T12:13:55.218Z,14.25
2022-11-05T12:16:58.783Z,14.24
2022-11-05T12:19:43.349Z,14.30
2022-11-05T12:22:34.559Z,14.29
2022-11-05T12:25:16.526Z,14.28
2022-11-05T12:27:46.384Z,14.24
2022-11-05T12:30:21.836Z,14.15
2022-11-05T12:33:26.281Z,13.95
2022-11-05T12:36:03.686Z,13.87
2022-11-05T12:39:09.846Z,13.82
2022-11-05T12:42:28.571Z,13.99
2022-11-05T12:45:29.918Z,13.89
2022-11-05T12:48:24.863Z,14.14
2022-11-05T12:51:51.156Z,14.36
2022-11-05T12:54:54.659Z,14.56
2022-11-05T12:57:24.225Z,14.51
2022-11-05T13:00:06.226Z,14.95
2022-11-05T13:03:01.364Z,14.92
2022-11-05T13:05:54.121Z,14.89
2022-11-05T13:08:49.712Z,14.75
2022-11-05T13:11:38.884Z,14.71
2022-11-05T13:14:15.129Z,14.65
2022-11-05T13:16:53.276Z,14.69
2022-11-05T13:19:52.069Z,14.53
2022-11-05T13:22:43.295Z,14.40
2022-11-05T13:25:32.137Z,14.40
2022-11-05T13:28:29.725Z,14.43
2022-11-05T13:31:01.504Z,14.33
2022-11-05T13:33:41.029Z,14.33
2022-11-05T13:36:37.882Z,14.29
2022-11-05T13:39:24.794Z,14.05
2022-11-05T13:42:19.165Z,14.20
2022-11-05T13:44:59.848Z,14.01
2022-11-05T13:47:26.527Z,14.17
2022-11-05T13:50:39.930Z,14.04
2022-11-05T13:53:26.291Z,14.03
2022-11-05T13:56:20.241Z,13.97
2022-11-05T13:58:58.789Z,13.90
2022-11-05T14:01:39.338Z,13.92
2022-11-05T14:04:06.554Z,13.61
2022-11-05T14:06:36.495Z,13.55
2022-11-05T14:09:12.184Z,13.46
2022-11-05T14:11:44.140Z,13.24
2022-11-05T14:14:21.578Z,13.41
2022-11-05T14:17:13.115Z,13.51
2022-11-05T14:20:06.675Z,13.62
2022-11-05T14:22:33.382Z,13.85
2022-11-05T14:25:18.957Z,13.76
2022-11-05T14:27:50.334Z,13.72
2022-11-05T14:30:44.825Z,13.71
2022-11-05T14:33:38.333Z,13.73
2022-11-05T14:36:34.027Z,13.75
2022-11-05T14:39:23.897Z,13.68
2022-11-05T14:42:12.916Z,13.60
2022-11-05T14:45:30.835Z,13.60
2022-11-05T14:48:04.303Z,13.51
2022-11-05T14:50:41.267Z,13.46
2022-11-05T14:53:35.799Z,13.25
2022-11-05T14:56:08.812Z,13.33
2022-11-05T14:58:40.959Z,13.36
2022-11-05T15:01:15.053Z,13.33
2022-11-05T15:03:46.298Z,13.32
2022-11-05T15:06:35.470Z,13.32
2022-11-05T15:09:27.269Z,13.26
2022-11-05T15:11:57.103Z,13.24
2022-11-05T15:14:40.845Z,13.21
2022-11-05T15:17:21.970Z,13.26
2022-11-05T15:19:49.193Z,13.23
2022-11-05T15:22:37.852Z,13.18
2022-11-05T15:25:06.581Z,13.20
2022-11-05T15:28:03.793Z,13.27
2022-11-05T15:30:31.651Z,13.14
2022-11-05T15:33:19.808Z,12.99
2022-11-05T15:35:46.647Z,12.97
2022-11-05T15:38:35.952Z,12.84
2022-11-05T15:41:29.243Z,12.63
2022-11-05T15:43:56.031Z,12.56
2022-11-05T15:46:28.022Z,12.52
2022-11-05T15:49:07.084Z,12.52
2022-11-05T15:51:35.492Z,12.52
2022-11-05T15:56:58.373Z,12.38
2022-11-05T15:59:27.670Z,12.39
2022-11-05T16:02:15.296Z,12.32
2022-11-05T16:04:47.482Z,12.35
2022-11-05T16:07:15.693Z,12.40
2022-11-05T16:09:52.153Z,12.38
2022-11-05T16:12:19.294Z,12.37
2022-11-05T16:15:10.736Z,12.37
2022-11-05T16:17:52.556Z,12.35
2022-11-05T16:20:32.731Z,12.36
2022-11-05T16:23:07.082Z,12.33
2022-11-05T16:25:42.414Z,12.33
2022-11-05T16:28:29.332Z,12.28
2022-11-05T16:30:57.943Z,12.27
2022-11-05T16:33:32.072Z,12.28
2022-11-05T16:35:59.002Z,12.26
2022-11-05T16:38:25.894Z,12.26
2022-11-05T16:40:52.683Z,12.21
2022-11-05T16:43:25.111Z,12.18
2022-11-05T16:45:59.285Z,12.14
2022-11-05T16:48:27.256Z,12.16
2022-11-05T16:50:54.716Z,12.17
2022-11-05T16:53:21.604Z,12.12
2022-11-05T16:55:49.264Z,12.16
2022-11-05T16:58:25.401Z,12.14
2022-11-05T17:00:59.678Z,12.16
2022-11-05T17:03:26.479Z,12.11
2022-11-05T17:05:53.278Z,12.08
2022-11-05T17:08:20.040Z,12.05
2022-11-05T17:10:46.886Z,12.01
2022-11-05T17:13:16.391Z,12.03
2022-11-05T17:15:45.758Z,12.01
2022-11-05T17:18:18.120Z,11.99
2022-11-05T17:20:50.066Z,12.03
2022-11-05T17:23:20.475Z,12.01
2022-11-05T17:25:50.856Z,11.94
2022-11-05T17:28:19.214Z,11.91
2022-11-05T17:30:52.245Z,11.89
2022-11-05T17:33:20.757Z,11.80
2022-11-05T17:35:47.599Z,11.78
2022-11-05T17:38:14.729Z,11.75
2022-11-05T17:40:41.764Z,11.73
2022-11-05T17:43:09.535Z,11.71
2022-11-05T17:45:46.884Z,11.70
2022-11-05T17:48:14.952Z,11.71
2022-11-05T17:50:49.377Z,11.68
2022-11-05T17:53:18.600Z,11.67
2022-11-05T17:55:46.956Z,11.63
2022-11-05T17:58:14.048Z,11.62
2022-11-05T18:00:42.370Z,11.61
2022-11-05T18:03:11.338Z,11.60
2022-11-05T18:05:39.908Z,11.63
2022-11-05T18:08:08.078Z,11.60
2022-11-05T18:10:39.617Z,11.63
2022-11-05T18:13:07.227Z,11.60
2022-11-05T18:15:35.436Z,11.60
2022-11-05T18:18:02.262Z,11.61
2022-11-05T18:20:29.555Z,11.64
2022-11-05T18:22:56.401Z,11.59
2022-11-05T18:25:23.225Z,11.59
2022-11-05T18:27:49.998Z,11.60
2022-11-05T18:30:17.006Z,11.62
2022-11-05T18:32:44.768Z,11.61
2022-11-05T18:35:13.345Z,11.55
2022-11-05T18:37:40.810Z,11.52
2022-11-05T18:40:08.320Z,11.53
2022-11-05T18:42:35.138Z,11.54
2022-11-05T18:45:02.010Z,11.52
2022-11-05T18:47:29.508Z,11.54
2022-11-05T18:49:56.299Z,11.57
2022-11-05T18:52:23.087Z,11.54
2022-11-05T18:54:49.919Z,11.53
2022-11-05T18:57:16.756Z,11.50
2022-11-05T18:59:46.647Z,11.46
2022-11-05T19:02:14.708Z,11.37
2022-11-05T19:05:00.439Z,11.33
2022-11-05T19:07:30.415Z,11.32
2022-11-05T19:09:57.216Z,11.30
2022-11-05T19:12:23.995Z,11.30
2022-11-05T19:14:50.781Z,11.29
2022-11-05T19:17:17.587Z,11.22
2022-11-05T19:19:44.390Z,11.20
2022-11-05T19:22:11.361Z,11.13
2022-11-05T19:24:38.152Z,11.04
2022-11-05T19:27:05.141Z,10.94
2022-11-05T19:29:32.037Z,10.88
2022-11-05T19:31:58.838Z,10.71
2022-11-05T19:34:25.762Z,10.50
2022-11-05T19:36:52.579Z,10.36
2022-11-05T19:39:19.362Z,10.26
2022-11-05T19:41:47.766Z,10.16
2022-11-05T19:44:14.528Z,10.12
2022-11-05T19:46:41.904Z,10.07
2022-11-05T19:49:08.679Z,10.04
2022-11-05T19:51:35.547Z,9.96
2022-11-05T19:54:09.599Z,9.93
2022-11-05T19:56:38.272Z,9.87
2022-11-05T19:59:10.530Z,9.83
2022-11-05T20:01:37.544Z,9.77
2022-11-05T20:04:05.692Z,9.71
2022-11-05T20:06:38.823Z,9.63
2022-11-05T20:09:22.135Z,9.46
2022-11-05T20:11:53.627Z,9.39
2022-11-05T20:14:20.667Z,9.30
2022-11-05T20:16:48.455Z,9.25
2022-11-05T20:19:18.497Z,9.18
2022-11-05T20:21:46.012Z,9.20
2022-11-05T20:24:22.072Z,9.19
2022-11-05T20:26:51.299Z,9.11
2022-11-05T20:29:18.159Z,9.10
2022-11-05T20:31:44.973Z,9.13
2022-11-05T20:34:11.861Z,9.11
2022-11-05T20:36:39.518Z,9.07
2022-11-05T20:39:06.345Z,9.02
2022-11-05T20:41:33.218Z,8.96
2022-11-05T20:44:00.111Z,8.88
2022-11-05T20:46:27.475Z,8.82
2022-11-05T20:48:54.791Z,8.82
2022-11-05T20:51:24.253Z,8.78
2022-11-05T20:53:56.473Z,8.77
2022-11-05T20:56:29.632Z,8.68
2022-11-05T20:58:58.690Z,8.66
2022-11-05T21:01:27.549Z,8.66
2022-11-05T21:03:54.621Z,8.65
2022-11-05T21:06:21.948Z,8.66
2022-11-05T21:08:50.425Z,8.69
2022-11-05T21:11:20.095Z,8.72
2022-11-05T21:13:47.540Z,8.72
2022-11-05T21:16:18.451Z,8.75
2022-11-05T21:18:46.580Z,8.73
2022-11-05T21:21:20.266Z,8.73
2022-11-05T21:23:47.672Z,8.69
2022-11-05T21:26:16.853Z,8.59
2022-11-05T21:28:43.809Z,8.54
2022-11-05T21:31:11.226Z,8.49
2022-11-05T21:33:38.596Z,8.39
2022-11-05T21:36:12.045Z,8.35
2022-11-05T21:38:40.685Z,8.34
2022-11-05T21:41:10.661Z,8.30
2022-11-05T21:43:39.331Z,8.24
2022-11-05T21:46:07.115Z,8.18
2022-11-05T21:48:34.019Z,8.11
2022-11-05T21:51:19.273Z,8.02
2022-11-05T21:54:04.716Z,7.96
2022-11-05T21:56:50.966Z,7.99
2022-11-05T21:59:42.756Z,8.03
2022-11-05T22:02:12.074Z,8.09
2022-11-05T22:04:42.213Z,8.12
2022-11-05T22:07:11.645Z,8.10
2022-11-05T22:09:38.615Z,8.04
2022-11-05T22:12:06.091Z,7.97
2022-11-05T22:14:33.252Z,7.93
2022-11-05T22:17:00.264Z,7.84
2022-11-05T22:19:27.961Z,7.68
2022-11-05T22:21:54.755Z,7.66
2022-11-05T22:24:21.819Z,7.67
2022-11-05T22:26:49.426Z,7.64
2022-11-05T22:29:17.220Z,7.59
2022-11-05T22:31:44.475Z,7.52
2022-11-05T22:34:11.913Z,7.50
2022-11-05T22:36:38.836Z,7.47
2022-11-05T22:39:06.498Z,7.51
2022-11-05T22:41:33.839Z,7.50
2022-11-05T22:44:00.720Z,7.41
2022-11-05T22:46:27.856Z,7.41
2022-11-05T22:48:56.154Z,7.40
2022-11-05T22:51:26.697Z,7.33
2022-11-05T22:53:57.548Z,7.33
2022-11-05T22:56:28.049Z,7.31
2022-11-05T22:58:55.852Z,7.24
2022-11-05T23:01:24.422Z,7.20
2022-11-05T23:03:54.015Z,7.11
2022-11-05T23:06:47.675Z,7.13
2022-11-05T23:09:43.007Z,7.18
2022-11-05T23:12:26.026Z,7.27
2022-11-05T23:14:53.796Z,7.34
2022-11-05T23:17:39.806Z,7.33
2022-11-05T23:20:15.334Z,7.34
2022-11-05T23:23:00.457Z,7.39
2022-11-05T23:25:27.247Z,7.33
2022-11-05T23:27:55.305Z,7.35
2022-11-05T23:30:26.242Z,7.36
2022-11-05T23:32:53.672Z,7.36
2022-11-05T23:35:40.808Z,7.29
2022-11-05T23:38:26.014Z,7.23
2022-11-05T23:41:11.520Z,7.19
2022-11-05T23:43:56.818Z,7.14
2022-11-05T23:46:42.109Z,7.06
2022-11-05T23:49:08.910Z,6.96
2022-11-05T23:51:35.703Z,6.88
2022-11-05T23:54:02.531Z,6.85
2022-11-05T23:56:31.668Z,6.89
2022-11-05T23:58:58.572Z,6.88
